Melbourne Beach, Florida
Current Conditions -  °F | °C
As of 11:53 PM on Saturday 25 Oct 2014 (Local Time) from KMLB Reporting Station
Clear Clear  
Wind Chill: 68°   Ceiling: Unl
Heat Index: 68°   Visibility: 10mi
Dew Point: 61°   Wind: 8mph
Humidity: 78%   Direction: 340°NNW
Pressure: 29.98"   Gusts: NA
Location:  28.07°N, 80.56°W
Report Text: KMLB 260353Z AUTO 34007KT 10SM CLR 20/16 A2998 RMK AO2 SLP152 T02000161
Loading
Personal Weather Stations






























Interactive Weather Map
Tropical Storm Tracking
New forecast layout! Learn more

10-Day Weather Forecast

Advertisements
Track Severe Weather on mobile